sensor_id;sensor_type;location;lat;lon;timestamp;temperature;humidity
39401;DHT22;54391;50.000;7.360;2023-10-09T00:02:14;15.70;19.30
39401;DHT22;54391;50.000;7.360;2023-10-09T00:04:42;15.70;18.00
39401;DHT22;54391;50.000;7.360;2023-10-09T00:07:11;15.80;16.80
39401;DHT22;54391;50.000;7.360;2023-10-09T00:09:39;15.70;17.00
39401;DHT22;54391;50.000;7.360;2023-10-09T00:12:16;15.80;16.00
39401;DHT22;54391;50.000;7.360;2023-10-09T00:14:49;15.80;15.10
39401;DHT22;54391;50.000;7.360;2023-10-09T00:17:21;15.80;14.40
39401;DHT22;54391;50.000;7.360;2023-10-09T00:19:49;15.80;15.00
39401;DHT22;54391;50.000;7.360;2023-10-09T00:22:18;15.80;14.50
39401;DHT22;54391;50.000;7.360;2023-10-09T00:24:56;15.80;14.20
39401;DHT22;54391;50.000;7.360;2023-10-09T00:27:38;15.70;14.30
39401;DHT22;54391;50.000;7.360;2023-10-09T00:30:12;15.70;14.30
39401;DHT22;54391;50.000;7.360;2023-10-09T00:32:44;15.70;13.90
39401;DHT22;54391;50.000;7.360;2023-10-09T00:35:18;15.80;13.10
39401;DHT22;54391;50.000;7.360;2023-10-09T00:38:03;15.80;13.00
39401;DHT22;54391;50.000;7.360;2023-10-09T00:40:40;15.70;12.70
39401;DHT22;54391;50.000;7.360;2023-10-09T00:43:12;15.70;12.90
39401;DHT22;54391;50.000;7.360;2023-10-09T00:45:43;15.70;13.20
39401;DHT22;54391;50.000;7.360;2023-10-09T00:48:11;15.60;12.50
39401;DHT22;54391;50.000;7.360;2023-10-09T00:50:48;15.60;13.00
39401;DHT22;54391;50.000;7.360;2023-10-09T00:53:19;15.60;12.60
39401;DHT22;54391;50.000;7.360;2023-10-09T00:55:58;15.60;11.70
39401;DHT22;54391;50.000;7.360;2023-10-09T00:58:37;15.60;12.10
39401;DHT22;54391;50.000;7.360;2023-10-09T01:01:06;15.60;12.10
39401;DHT22;54391;50.000;7.360;2023-10-09T01:03:41;15.60;12.00
39401;DHT22;54391;50.000;7.360;2023-10-09T01:06:11;15.60;12.30
39401;DHT22;54391;50.000;7.360;2023-10-09T01:08:47;15.50;12.70
39401;DHT22;54391;50.000;7.360;2023-10-09T01:11:33;15.60;12.70
39401;DHT22;54391;50.000;7.360;2023-10-09T01:14:13;15.50;13.20
39401;DHT22;54391;50.000;7.360;2023-10-09T01:16:43;15.50;12.80
39401;DHT22;54391;50.000;7.360;2023-10-09T01:19:11;15.50;13.40
39401;DHT22;54391;50.000;7.360;2023-10-09T01:21:50;15.50;13.40
39401;DHT22;54391;50.000;7.360;2023-10-09T01:24:19;15.50;13.80
39401;DHT22;54391;50.000;7.360;2023-10-09T01:26:48;15.50;14.40
39401;DHT22;54391;50.000;7.360;2023-10-09T01:29:21;15.50;15.00
39401;DHT22;54391;50.000;7.360;2023-10-09T01:31:54;15.40;15.50
39401;DHT22;54391;50.000;7.360;2023-10-09T01:34:22;15.40;15.60
39401;DHT22;54391;50.000;7.360;2023-10-09T01:37:04;15.30;15.40
39401;DHT22;54391;50.000;7.360;2023-10-09T01:39:39;15.40;16.00
39401;DHT22;54391;50.000;7.360;2023-10-09T01:42:08;15.30;15.90
39401;DHT22;54391;50.000;7.360;2023-10-09T01:44:36;15.40;16.10
39401;DHT22;54391;50.000;7.360;2023-10-09T01:47:09;15.30;15.60
39401;DHT22;54391;50.000;7.360;2023-10-09T01:49:40;15.30;16.30
39401;DHT22;54391;50.000;7.360;2023-10-09T01:52:10;15.30;16.30
39401;DHT22;54391;50.000;7.360;2023-10-09T01:54:43;15.30;16.00
39401;DHT22;54391;50.000;7.360;2023-10-09T01:57:13;15.30;15.80
39401;DHT22;54391;50.000;7.360;2023-10-09T01:59:42;15.40;16.60
39401;DHT22;54391;50.000;7.360;2023-10-09T02:02:15;15.40;16.70
39401;DHT22;54391;50.000;7.360;2023-10-09T02:04:52;15.30;17.20
39401;DHT22;54391;50.000;7.360;2023-10-09T02:07:21;15.40;17.30
39401;DHT22;54391;50.000;7.360;2023-10-09T02:09:56;15.30;18.20
39401;DHT22;54391;50.000;7.360;2023-10-09T02:12:23;15.30;18.50
39401;DHT22;54391;50.000;7.360;2023-10-09T02:14:59;15.30;19.20
39401;DHT22;54391;50.000;7.360;2023-10-09T02:17:32;15.30;19.50
39401;DHT22;54391;50.000;7.360;2023-10-09T02:20:00;15.30;20.00
39401;DHT22;54391;50.000;7.360;2023-10-09T02:22:42;15.20;20.40
39401;DHT22;54391;50.000;7.360;2023-10-09T02:25:11;15.20;20.80
39401;DHT22;54391;50.000;7.360;2023-10-09T02:27:38;15.20;21.00
39401;DHT22;54391;50.000;7.360;2023-10-09T02:30:19;15.20;21.70
39401;DHT22;54391;50.000;7.360;2023-10-09T02:32:53;15.10;22.50
39401;DHT22;54391;50.000;7.360;2023-10-09T02:35:33;15.10;22.90
39401;DHT22;54391;50.000;7.360;2023-10-09T02:38:05;15.00;22.80
39401;DHT22;54391;50.000;7.360;2023-10-09T02:40:37;15.10;23.60
39401;DHT22;54391;50.000;7.360;2023-10-09T02:43:27;15.10;24.00
39401;DHT22;54391;50.000;7.360;2023-10-09T02:46:00;15.00;23.40
39401;DHT22;54391;50.000;7.360;2023-10-09T02:48:38;15.10;24.10
39401;DHT22;54391;50.000;7.360;2023-10-09T02:51:08;15.00;24.40
39401;DHT22;54391;50.000;7.360;2023-10-09T02:53:42;15.00;24.60
39401;DHT22;54391;50.000;7.360;2023-10-09T02:56:11;12.60;23.50
39401;DHT22;54391;50.000;7.360;2023-10-09T02:58:40;14.90;25.10
39401;DHT22;54391;50.000;7.360;2023-10-09T03:01:12;14.90;25.30
39401;DHT22;54391;50.000;7.360;2023-10-09T03:03:40;14.90;25.70
39401;DHT22;54391;50.000;7.360;2023-10-09T03:06:11;14.90;25.80
39401;DHT22;54391;50.000;7.360;2023-10-09T03:08:40;14.90;26.30
39401;DHT22;54391;50.000;7.360;2023-10-09T03:11:08;14.80;26.50
39401;DHT22;54391;50.000;7.360;2023-10-09T03:13:42;14.80;27.30
39401;DHT22;54391;50.000;7.360;2023-10-09T03:16:11;14.70;27.70
39401;DHT22;54391;50.000;7.360;2023-10-09T03:18:46;14.70;28.40
39401;DHT22;54391;50.000;7.360;2023-10-09T03:21:13;14.70;29.00
39401;DHT22;54391;50.000;7.360;2023-10-09T03:23:44;14.60;29.30
39401;DHT22;54391;50.000;7.360;2023-10-09T03:26:15;14.60;29.60
39401;DHT22;54391;50.000;7.360;2023-10-09T03:28:47;14.60;30.20
39401;DHT22;54391;50.000;7.360;2023-10-09T03:31:14;14.60;30.40
39401;DHT22;54391;50.000;7.360;2023-10-09T03:33:41;14.50;30.80
39401;DHT22;54391;50.000;7.360;2023-10-09T03:36:09;14.50;31.20
39401;DHT22;54391;50.000;7.360;2023-10-09T03:38:40;14.50;31.80
39401;DHT22;54391;50.000;7.360;2023-10-09T03:41:13;14.50;32.10
39401;DHT22;54391;50.000;7.360;2023-10-09T03:43:43;14.50;32.10
39401;DHT22;54391;50.000;7.360;2023-10-09T03:46:14;14.50;31.20
39401;DHT22;54391;50.000;7.360;2023-10-09T03:48:47;14.50;31.80
39401;DHT22;54391;50.000;7.360;2023-10-09T03:51:14;14.50;32.00
39401;DHT22;54391;50.000;7.360;2023-10-09T03:53:47;14.50;32.10
39401;DHT22;54391;50.000;7.360;2023-10-09T03:56:14;14.50;32.10
39401;DHT22;54391;50.000;7.360;2023-10-09T03:58:44;14.50;32.70
39401;DHT22;54391;50.000;7.360;2023-10-09T04:01:14;14.50;32.60
39401;DHT22;54391;50.000;7.360;2023-10-09T04:03:48;14.60;32.50
39401;DHT22;54391;50.000;7.360;2023-10-09T04:06:21;14.60;31.70
39401;DHT22;54391;50.000;7.360;2023-10-09T04:08:48;14.60;32.30
39401;DHT22;54391;50.000;7.360;2023-10-09T04:11:17;14.60;31.80
39401;DHT22;54391;50.000;7.360;2023-10-09T04:13:49;14.60;31.90
39401;DHT22;54391;50.000;7.360;2023-10-09T04:16:19;14.60;31.60
39401;DHT22;54391;50.000;7.360;2023-10-09T04:19:00;14.60;32.20
39401;DHT22;54391;50.000;7.360;2023-10-09T04:21:37;14.60;32.20
39401;DHT22;54391;50.000;7.360;2023-10-09T04:24:04;14.60;32.20
39401;DHT22;54391;50.000;7.360;2023-10-09T04:26:50;14.60;32.20
39401;DHT22;54391;50.000;7.360;2023-10-09T04:29:23;14.60;32.80
39401;DHT22;54391;50.000;7.360;2023-10-09T04:32:06;14.60;33.00
39401;DHT22;54391;50.000;7.360;2023-10-09T04:34:42;14.50;33.30
39401;DHT22;54391;50.000;7.360;2023-10-09T04:37:14;14.60;32.80
39401;DHT22;54391;50.000;7.360;2023-10-09T04:40:03;14.60;33.50
39401;DHT22;54391;50.000;7.360;2023-10-09T04:42:38;14.60;33.10
39401;DHT22;54391;50.000;7.360;2023-10-09T04:45:05;14.60;33.30
39401;DHT22;54391;50.000;7.360;2023-10-09T04:47:51;14.60;33.20
39401;DHT22;54391;50.000;7.360;2023-10-09T04:50:32;14.60;33.70
39401;DHT22;54391;50.000;7.360;2023-10-09T04:53:28;14.60;33.80
39401;DHT22;54391;50.000;7.360;2023-10-09T04:56:05;14.60;33.60
39401;DHT22;54391;50.000;7.360;2023-10-09T04:58:41;14.50;34.10
39401;DHT22;54391;50.000;7.360;2023-10-09T05:01:09;14.50;34.60
39401;DHT22;54391;50.000;7.360;2023-10-09T05:03:43;14.50;34.70
39401;DHT22;54391;50.000;7.360;2023-10-09T05:06:11;14.50;34.70
39401;DHT22;54391;50.000;7.360;2023-10-09T05:09:10;14.40;35.30
39401;DHT22;54391;50.000;7.360;2023-10-09T05:11:41;14.50;35.70
39401;DHT22;54391;50.000;7.360;2023-10-09T05:14:20;14.50;35.70
39401;DHT22;54391;50.000;7.360;2023-10-09T05:17:04;14.50;35.60
39401;DHT22;54391;50.000;7.360;2023-10-09T05:19:36;14.50;36.20
39401;DHT22;54391;50.000;7.360;2023-10-09T05:22:21;14.50;35.80
39401;DHT22;54391;50.000;7.360;2023-10-09T05:25:02;14.50;35.90
39401;DHT22;54391;50.000;7.360;2023-10-09T05:27:41;14.50;35.60
39401;DHT22;54391;50.000;7.360;2023-10-09T05:30:17;14.50;36.30
39401;DHT22;54391;50.000;7.360;2023-10-09T05:32:59;14.50;36.40
39401;DHT22;54391;50.000;7.360;2023-10-09T05:35:32;14.50;36.40
39401;DHT22;54391;50.000;7.360;2023-10-09T05:38:28;14.60;35.40
39401;DHT22;54391;50.000;7.360;2023-10-09T05:40:56;14.60;35.90
39401;DHT22;54391;50.000;7.360;2023-10-09T05:43:44;14.60;36.00
39401;DHT22;54391;50.000;7.360;2023-10-09T05:46:29;14.60;35.90
39401;DHT22;54391;50.000;7.360;2023-10-09T05:49:02;14.50;36.40
39401;DHT22;54391;50.000;7.360;2023-10-09T05:51:46;14.60;36.30
39401;DHT22;54391;50.000;7.360;2023-10-09T05:54:19;14.60;36.40
39401;DHT22;54391;50.000;7.360;2023-10-09T05:57:04;14.60;36.00
39401;DHT22;54391;50.000;7.360;2023-10-09T05:59:48;14.60;36.40
39401;DHT22;54391;50.000;7.360;2023-10-09T06:02:37;14.60;36.50
39401;DHT22;54391;50.000;7.360;2023-10-09T06:05:22;14.60;36.40
39401;DHT22;54391;50.000;7.360;2023-10-09T06:08:18;14.60;35.80
39401;DHT22;54391;50.000;7.360;2023-10-09T06:10:51;14.70;37.40
39401;DHT22;54391;50.000;7.360;2023-10-09T06:13:31;14.70;36.50
39401;DHT22;54391;50.000;7.360;2023-10-09T06:16:11;14.80;35.30
39401;DHT22;54391;50.000;7.360;2023-10-09T06:18:55;14.70;35.70
39401;DHT22;54391;50.000;7.360;2023-10-09T06:21:34;14.80;35.70
39401;DHT22;54391;50.000;7.360;2023-10-09T06:24:35;14.80;36.40
39401;DHT22;54391;50.000;7.360;2023-10-09T06:27:07;14.90;35.30
39401;DHT22;54391;50.000;7.360;2023-10-09T06:29:50;14.80;35.50
39401;DHT22;54391;50.000;7.360;2023-10-09T06:32:40;14.90;35.40
39401;DHT22;54391;50.000;7.360;2023-10-09T06:35:17;14.90;35.80
39401;DHT22;54391;50.000;7.360;2023-10-09T06:37:48;14.90;35.60
39401;DHT22;54391;50.000;7.360;2023-10-09T06:40:36;14.90;35.90
39401;DHT22;54391;50.000;7.360;2023-10-09T06:43:21;14.90;35.80
39401;DHT22;54391;50.000;7.360;2023-10-09T06:45:56;15.00;35.50
39401;DHT22;54391;50.000;7.360;2023-10-09T06:48:45;15.00;35.90
39401;DHT22;54391;50.000;7.360;2023-10-09T06:51:22;15.00;35.60
39401;DHT22;54391;50.000;7.360;2023-10-09T06:54:06;14.90;35.90
39401;DHT22;54391;50.000;7.360;2023-10-09T06:56:36;15.00;34.70
39401;DHT22;54391;50.000;7.360;2023-10-09T06:59:29;15.00;35.30
39401;DHT22;54391;50.000;7.360;2023-10-09T07:02:09;15.10;35.60
39401;DHT22;54391;50.000;7.360;2023-10-09T07:04:51;15.10;35.40
39401;DHT22;54391;50.000;7.360;2023-10-09T07:07:21;15.10;34.60
39401;DHT22;54391;50.000;7.360;2023-10-09T07:09:51;15.10;34.80
39401;DHT22;54391;50.000;7.360;2023-10-09T07:12:37;15.20;35.00
39401;DHT22;54391;50.000;7.360;2023-10-09T07:15:10;15.20;34.60
39401;DHT22;54391;50.000;7.360;2023-10-09T07:17:54;15.20;34.40
39401;DHT22;54391;50.000;7.360;2023-10-09T07:20:37;15.30;34.50
39401;DHT22;54391;50.000;7.360;2023-10-09T07:23:04;15.30;34.50
39401;DHT22;54391;50.000;7.360;2023-10-09T07:25:48;15.30;34.90
39401;DHT22;54391;50.000;7.360;2023-10-09T07:28:27;15.30;34.60
39401;DHT22;54391;50.000;7.360;2023-10-09T07:31:18;15.30;34.00
39401;DHT22;54391;50.000;7.360;2023-10-09T07:33:53;15.50;33.60
39401;DHT22;54391;50.000;7.360;2023-10-09T07:36:33;15.50;32.70
39401;DHT22;54391;50.000;7.360;2023-10-09T07:39:04;15.40;33.70
39401;DHT22;54391;50.000;7.360;2023-10-09T07:41:49;15.50;33.20
39401;DHT22;54391;50.000;7.360;2023-10-09T07:44:42;15.60;32.40
39401;DHT22;54391;50.000;7.360;2023-10-09T07:47:18;15.60;32.00
39401;DHT22;54391;50.000;7.360;2023-10-09T07:50:11;15.70;32.00
39401;DHT22;54391;50.000;7.360;2023-10-09T07:52:46;15.80;31.40
39401;DHT22;54391;50.000;7.360;2023-10-09T07:55:16;15.80;30.30
39401;DHT22;54391;50.000;7.360;2023-10-09T07:57:55;15.80;29.20
39401;DHT22;54391;50.000;7.360;2023-10-09T08:00:24;15.90;29.80
39401;DHT22;54391;50.000;7.360;2023-10-09T08:03:23;15.90;29.80
39401;DHT22;54391;50.000;7.360;2023-10-09T08:05:51;16.00;28.80
39401;DHT22;54391;50.000;7.360;2023-10-09T08:08:32;16.10;29.30
39401;DHT22;54391;50.000;7.360;2023-10-09T08:11:29;16.00;27.90
39401;DHT22;54391;50.000;7.360;2023-10-09T08:14:25;16.10;28.60
39401;DHT22;54391;50.000;7.360;2023-10-09T08:17:08;16.10;26.70
39401;DHT22;54391;50.000;7.360;2023-10-09T08:19:47;16.20;27.60
39401;DHT22;54391;50.000;7.360;2023-10-09T08:22:24;16.10;27.70
39401;DHT22;54391;50.000;7.360;2023-10-09T08:25:09;16.20;27.30
39401;DHT22;54391;50.000;7.360;2023-10-09T08:27:52;16.20;26.20
39401;DHT22;54391;50.000;7.360;2023-10-09T08:30:24;16.20;26.60
39401;DHT22;54391;50.000;7.360;2023-10-09T08:33:17;16.30;25.60
39401;DHT22;54391;50.000;7.360;2023-10-09T08:36:02;16.40;23.90
39401;DHT22;54391;50.000;7.360;2023-10-09T08:38:30;16.40;24.40
39401;DHT22;54391;50.000;7.360;2023-10-09T08:41:07;16.40;23.10
39401;DHT22;54391;50.000;7.360;2023-10-09T08:43:47;16.50;24.40
39401;DHT22;54391;50.000;7.360;2023-10-09T08:46:19;16.50;20.80
39401;DHT22;54391;50.000;7.360;2023-10-09T08:48:48;16.50;21.90
39401;DHT22;54391;50.000;7.360;2023-10-09T08:51:17;16.50;21.10
39401;DHT22;54391;50.000;7.360;2023-10-09T08:53:46;16.50;20.40
39401;DHT22;54391;50.000;7.360;2023-10-09T08:56:13;16.60;20.30
39401;DHT22;54391;50.000;7.360;2023-10-09T08:58:45;16.60;20.50
39401;DHT22;54391;50.000;7.360;2023-10-09T09:01:16;16.60;19.90
39401;DHT22;54391;50.000;7.360;2023-10-09T09:03:49;16.60;18.80
39401;DHT22;54391;50.000;7.360;2023-10-09T09:06:18;16.60;18.30
39401;DHT22;54391;50.000;7.360;2023-10-09T09:08:46;16.50;18.60
39401;DHT22;54391;50.000;7.360;2023-10-09T09:11:14;16.40;18.10
39401;DHT22;54391;50.000;7.360;2023-10-09T09:13:44;16.50;18.30
39401;DHT22;54391;50.000;7.360;2023-10-09T09:16:16;16.50;18.10
39401;DHT22;54391;50.000;7.360;2023-10-09T09:18:53;16.40;18.80
39401;DHT22;54391;50.000;7.360;2023-10-09T09:21:29;16.50;18.50
39401;DHT22;54391;50.000;7.360;2023-10-09T09:24:04;16.60;17.20
39401;DHT22;54391;50.000;7.360;2023-10-09T09:26:41;16.80;16.00
39401;DHT22;54391;50.000;7.360;2023-10-09T09:29:12;16.80;15.80
39401;DHT22;54391;50.000;7.360;2023-10-09T09:31:52;16.80;16.20
39401;DHT22;54391;50.000;7.360;2023-10-09T09:34:21;16.90;15.30
39401;DHT22;54391;50.000;7.360;2023-10-09T09:36:53;17.00;15.80
39401;DHT22;54391;50.000;7.360;2023-10-09T09:39:25;17.00;16.30
39401;DHT22;54391;50.000;7.360;2023-10-09T09:41:56;17.00;15.80
39401;DHT22;54391;50.000;7.360;2023-10-09T09:44:23;17.00;15.10
39401;DHT22;54391;50.000;7.360;2023-10-09T09:46:57;17.10;14.60
39401;DHT22;54391;50.000;7.360;2023-10-09T09:49:28;17.10;14.40
39401;DHT22;54391;50.000;7.360;2023-10-09T09:52:02;17.10;14.60
39401;DHT22;54391;50.000;7.360;2023-10-09T09:54:36;17.10;14.40
39401;DHT22;54391;50.000;7.360;2023-10-09T09:57:04;17.20;13.40
39401;DHT22;54391;50.000;7.360;2023-10-09T09:59:38;17.30;14.20
39401;DHT22;54391;50.000;7.360;2023-10-09T10:02:20;17.50;13.70
39401;DHT22;54391;50.000;7.360;2023-10-09T10:04:55;18.00;9.50
39401;DHT22;54391;50.000;7.360;2023-10-09T10:07:27;18.40;6.40
39401;DHT22;54391;50.000;7.360;2023-10-09T10:09:56;18.30;5.90
39401;DHT22;54391;50.000;7.360;2023-10-09T10:12:50;18.20;5.30
39401;DHT22;54391;50.000;7.360;2023-10-09T10:15:57;18.20;6.80
39401;DHT22;54391;50.000;7.360;2023-10-09T10:18:30;18.00;6.90
39401;DHT22;54391;50.000;7.360;2023-10-09T10:21:17;18.00;7.60
39401;DHT22;54391;50.000;7.360;2023-10-09T10:23:59;17.80;9.60
39401;DHT22;54391;50.000;7.360;2023-10-09T10:26:32;17.90;8.70
39401;DHT22;54391;50.000;7.360;2023-10-09T10:29:17;18.00;9.40
39401;DHT22;54391;50.000;7.360;2023-10-09T10:31:56;18.20;7.70
39401;DHT22;54391;50.000;7.360;2023-10-09T10:34:24;18.60;6.40
39401;DHT22;54391;50.000;7.360;2023-10-09T10:36:53;19.00;2.30
39401;DHT22;54391;50.000;7.360;2023-10-09T10:39:25;19.10;1.30
39401;DHT22;54391;50.000;7.360;2023-10-09T10:42:06;19.20;1.50
39401;DHT22;54391;50.000;7.360;2023-10-09T10:44:35;19.30;1.00
39401;DHT22;54391;50.000;7.360;2023-10-09T10:47:09;20.10;1.00
39401;DHT22;54391;50.000;7.360;2023-10-09T10:49:49;20.30;1.00
39401;DHT22;54391;50.000;7.360;2023-10-09T10:52:25;20.80;1.00
39401;DHT22;54391;50.000;7.360;2023-10-09T10:55:09;21.10;1.00
39401;DHT22;54391;50.000;7.360;2023-10-09T10:57:45;21.20;1.00
39401;DHT22;54391;50.000;7.360;2023-10-09T11:00:27;21.10;1.00
39401;DHT22;54391;50.000;7.360;2023-10-09T11:03:17;21.30;1.00
39401;DHT22;54391;50.000;7.360;2023-10-09T11:05:49;21.40;1.00
39401;DHT22;54391;50.000;7.360;2023-10-09T11:08:25;21.80;1.00
39401;DHT22;54391;50.000;7.360;2023-10-09T11:11:11;22.20;1.00
39401;DHT22;54391;50.000;7.360;2023-10-09T11:13:42;22.20;1.00
39401;DHT22;54391;50.000;7.360;2023-10-09T11:16:23;22.40;1.00
39401;DHT22;54391;50.000;7.360;2023-10-09T11:19:09;22.20;1.00
39401;DHT22;54391;50.000;7.360;2023-10-09T11:21:53;22.30;1.00
39401;DHT22;54391;50.000;7.360;2023-10-09T11:24:48;22.20;1.00
39401;DHT22;54391;50.000;7.360;2023-10-09T11:27:27;22.40;1.00
39401;DHT22;54391;50.000;7.360;2023-10-09T11:29:58;22.40;1.00
39401;DHT22;54391;50.000;7.360;2023-10-09T11:32:40;22.30;1.00
39401;DHT22;54391;50.000;7.360;2023-10-09T11:35:12;22.30;1.00
39401;DHT22;54391;50.000;7.360;2023-10-09T11:37:41;22.30;1.00
39401;DHT22;54391;50.000;7.360;2023-10-09T11:40:29;22.00;1.00
39401;DHT22;54391;50.000;7.360;2023-10-09T11:43:00;22.10;1.00
39401;DHT22;54391;50.000;7.360;2023-10-09T11:45:30;22.10;1.00
39401;DHT22;54391;50.000;7.360;2023-10-09T11:48:17;22.40;1.00
39401;DHT22;54391;50.000;7.360;2023-10-09T11:50:48;22.50;1.00
39401;DHT22;54391;50.000;7.360;2023-10-09T11:53:19;22.70;1.00
39401;DHT22;54391;50.000;7.360;2023-10-09T11:56:00;22.30;1.00
39401;DHT22;54391;50.000;7.360;2023-10-09T11:58:28;22.20;1.00
39401;DHT22;54391;50.000;7.360;2023-10-09T12:00:56;21.90;1.00
39401;DHT22;54391;50.000;7.360;2023-10-09T12:03:25;21.70;1.00
39401;DHT22;54391;50.000;7.360;2023-10-09T12:05:56;21.70;1.00
39401;DHT22;54391;50.000;7.360;2023-10-09T12:08:24;21.70;1.00
39401;DHT22;54391;50.000;7.360;2023-10-09T12:10:56;21.50;1.00
39401;DHT22;54391;50.000;7.360;2023-10-09T12:13:25;21.50;1.00
39401;DHT22;54391;50.000;7.360;2023-10-09T12:15:53;21.40;1.00
39401;DHT22;54391;50.000;7.360;2023-10-09T12:18:21;21.40;1.00
39401;DHT22;54391;50.000;7.360;2023-10-09T12:20:49;21.50;1.00
39401;DHT22;54391;50.000;7.360;2023-10-09T12:23:18;21.40;1.00
39401;DHT22;54391;50.000;7.360;2023-10-09T12:25:47;21.50;1.00
39401;DHT22;54391;50.000;7.360;2023-10-09T12:28:16;21.60;1.00
39401;DHT22;54391;50.000;7.360;2023-10-09T12:30:47;21.60;1.00
39401;DHT22;54391;50.000;7.360;2023-10-09T12:33:16;21.60;1.00
39401;DHT22;54391;50.000;7.360;2023-10-09T12:35:44;21.70;1.00
39401;DHT22;54391;50.000;7.360;2023-10-09T12:38:13;21.80;1.00
39401;DHT22;54391;50.000;7.360;2023-10-09T12:40:44;21.80;1.00
39401;DHT22;54391;50.000;7.360;2023-10-09T12:43:18;21.70;1.00
39401;DHT22;54391;50.000;7.360;2023-10-09T12:45:49;21.70;1.00
39401;DHT22;54391;50.000;7.360;2023-10-09T12:48:16;21.80;1.00
39401;DHT22;54391;50.000;7.360;2023-10-09T12:50:44;21.80;1.00
39401;DHT22;54391;50.000;7.360;2023-10-09T12:53:11;21.70;1.00
39401;DHT22;54391;50.000;7.360;2023-10-09T12:55:43;21.80;1.00
39401;DHT22;54391;50.000;7.360;2023-10-09T12:58:11;22.00;1.00
39401;DHT22;54391;50.000;7.360;2023-10-09T13:00:42;21.90;1.00
39401;DHT22;54391;50.000;7.360;2023-10-09T13:03:16;22.10;1.00
39401;DHT22;54391;50.000;7.360;2023-10-09T13:05:45;22.20;1.00
39401;DHT22;54391;50.000;7.360;2023-10-09T13:08:23;22.20;1.00
39401;DHT22;54391;50.000;7.360;2023-10-09T13:10:51;22.30;1.00
39401;DHT22;54391;50.000;7.360;2023-10-09T13:13:26;22.30;1.00
39401;DHT22;54391;50.000;7.360;2023-10-09T13:16:09;22.50;1.00
39401;DHT22;54391;50.000;7.360;2023-10-09T13:18:41;22.50;1.00
39401;DHT22;54391;50.000;7.360;2023-10-09T13:21:16;22.60;1.00
39401;DHT22;54391;50.000;7.360;2023-10-09T13:23:43;22.60;1.00
39401;DHT22;54391;50.000;7.360;2023-10-09T13:26:13;22.60;1.00
39401;DHT22;54391;50.000;7.360;2023-10-09T13:28:51;22.50;1.00
39401;DHT22;54391;50.000;7.360;2023-10-09T13:31:19;22.60;1.00
39401;DHT22;54391;50.000;7.360;2023-10-09T13:33:48;22.50;1.00
39401;DHT22;54391;50.000;7.360;2023-10-09T13:36:20;22.30;1.00
39401;DHT22;54391;50.000;7.360;2023-10-09T13:38:54;22.20;1.00
39401;DHT22;54391;50.000;7.360;2023-10-09T13:41:21;22.20;1.00
39401;DHT22;54391;50.000;7.360;2023-10-09T13:43:54;22.10;1.00
39401;DHT22;54391;50.000;7.360;2023-10-09T13:46:23;22.10;1.00
39401;DHT22;54391;50.000;7.360;2023-10-09T13:48:51;21.90;1.00
39401;DHT22;54391;50.000;7.360;2023-10-09T13:51:19;21.90;1.00
39401;DHT22;54391;50.000;7.360;2023-10-09T13:56:18;21.90;1.00
39401;DHT22;54391;50.000;7.360;2023-10-09T13:58:46;21.90;1.00
39401;DHT22;54391;50.000;7.360;2023-10-09T14:01:13;21.90;1.00
39401;DHT22;54391;50.000;7.360;2023-10-09T14:03:55;21.90;1.00
39401;DHT22;54391;50.000;7.360;2023-10-09T14:06:22;21.90;1.00
39401;DHT22;54391;50.000;7.360;2023-10-09T14:09:01;21.90;1.00
39401;DHT22;54391;50.000;7.360;2023-10-09T14:11:31;22.00;1.00
39401;DHT22;54391;50.000;7.360;2023-10-09T14:14:03;21.90;1.00
39401;DHT22;54391;50.000;7.360;2023-10-09T14:16:35;21.90;1.00
39401;DHT22;54391;50.000;7.360;2023-10-09T14:21:38;21.80;1.00
39401;DHT22;54391;50.000;7.360;2023-10-09T14:24:06;21.90;1.00
39401;DHT22;54391;50.000;7.360;2023-10-09T14:26:41;21.90;1.00
39401;DHT22;54391;50.000;7.360;2023-10-09T14:34:16;21.60;1.00
39401;DHT22;54391;50.000;7.360;2023-10-09T14:36:43;21.50;1.00
39401;DHT22;54391;50.000;7.360;2023-10-09T14:39:10;21.40;1.00
39401;DHT22;54391;50.000;7.360;2023-10-09T14:41:39;21.40;1.00
39401;DHT22;54391;50.000;7.360;2023-10-09T14:44:06;21.40;1.00
39401;DHT22;54391;50.000;7.360;2023-10-09T14:46:42;21.30;1.00
39401;DHT22;54391;50.000;7.360;2023-10-09T14:51:43;21.10;1.00
39401;DHT22;54391;50.000;7.360;2023-10-09T14:54:11;21.10;1.00
39401;DHT22;54391;50.000;7.360;2023-10-09T14:56:43;21.10;1.00
39401;DHT22;54391;50.000;7.360;2023-10-09T14:59:11;21.10;1.00
39401;DHT22;54391;50.000;7.360;2023-10-09T15:01:38;21.10;1.00
39401;DHT22;54391;50.000;7.360;2023-10-09T15:04:05;21.00;1.00
39401;DHT22;54391;50.000;7.360;2023-10-09T15:06:33;20.90;1.00
39401;DHT22;54391;50.000;7.360;2023-10-09T15:09:05;20.70;1.00
39401;DHT22;54391;50.000;7.360;2023-10-09T15:11:42;20.70;1.00
39401;DHT22;54391;50.000;7.360;2023-10-09T15:14:09;20.60;1.00
39401;DHT22;54391;50.000;7.360;2023-10-09T15:16:36;20.50;1.00
39401;DHT22;54391;50.000;7.360;2023-10-09T15:19:04;20.50;1.00
39401;DHT22;54391;50.000;7.360;2023-10-09T15:21:32;20.40;1.00
39401;DHT22;54391;50.000;7.360;2023-10-09T15:24:00;20.40;1.00
39401;DHT22;54391;50.000;7.360;2023-10-09T15:26:29;20.30;1.00
39401;DHT22;54391;50.000;7.360;2023-10-09T15:34:00;20.20;1.00
39401;DHT22;54391;50.000;7.360;2023-10-09T15:36:27;20.10;1.00
39401;DHT22;54391;50.000;7.360;2023-10-09T15:38:57;20.10;1.00
39401;DHT22;54391;50.000;7.360;2023-10-09T15:41:28;20.00;1.00
39401;DHT22;54391;50.000;7.360;2023-10-09T15:43:57;20.00;1.00
39401;DHT22;54391;50.000;7.360;2023-10-09T15:46:25;19.90;1.00
39401;DHT22;54391;50.000;7.360;2023-10-09T15:48:53;19.90;1.00
39401;DHT22;54391;50.000;7.360;2023-10-09T15:51:21;19.90;1.00
39401;DHT22;54391;50.000;7.360;2023-10-09T15:53:48;19.80;1.00
39401;DHT22;54391;50.000;7.360;2023-10-09T15:56:17;19.80;1.00
39401;DHT22;54391;50.000;7.360;2023-10-09T15:58:49;19.50;1.00
39401;DHT22;54391;50.000;7.360;2023-10-09T16:01:20;19.50;1.00
39401;DHT22;54391;50.000;7.360;2023-10-09T16:03:48;19.50;1.00
39401;DHT22;54391;50.000;7.360;2023-10-09T16:06:16;19.50;1.00
39401;DHT22;54391;50.000;7.360;2023-10-09T16:08:45;19.50;1.00
39401;DHT22;54391;50.000;7.360;2023-10-09T16:11:16;19.40;1.00
39401;DHT22;54391;50.000;7.360;2023-10-09T16:13:44;19.30;1.00
39401;DHT22;54391;50.000;7.360;2023-10-09T16:18:40;19.20;1.00
39401;DHT22;54391;50.000;7.360;2023-10-09T16:21:07;19.20;1.00
39401;DHT22;54391;50.000;7.360;2023-10-09T16:26:07;21.80;1.00
39401;DHT22;54391;50.000;7.360;2023-10-09T16:28:35;19.00;1.00
39401;DHT22;54391;50.000;7.360;2023-10-09T16:31:02;19.00;1.00
39401;DHT22;54391;50.000;7.360;2023-10-09T16:33:32;19.00;1.00
39401;DHT22;54391;50.000;7.360;2023-10-09T16:36:00;19.00;1.00
39401;DHT22;54391;50.000;7.360;2023-10-09T16:40:55;18.90;1.00
39401;DHT22;54391;50.000;7.360;2023-10-09T16:43:22;18.90;1.00
39401;DHT22;54391;50.000;7.360;2023-10-09T16:45:53;18.90;1.00
39401;DHT22;54391;50.000;7.360;2023-10-09T16:48:24;18.80;1.00